Max Meadows, Virginia
Current Conditions -  °F | °C
As of 10:35 PM on Saturday 24 Jan 2015 (Local Time) from KHLX Reporting Station
Overcast Overcast  
Wind Chill: 20°   Ceiling: 2000
Heat Index: 32°   Visibility: 10mi
Dew Point: 27°   Wind: 18mph
Humidity: 81%   Direction: 300°WNW
Pressure: 29.74"   Gusts: 24mph
Location:  36.97°N, 80.95°W
Report Text: KHLX 250335Z AUTO 30016G21KT 10SM OVC020 00/M03 A2974 RMK AO2 T10011030
Loading
Personal Weather Stations






























Interactive Weather Map New forecast layout! Learn more

10-Day Weather Forecast

Advertisements
Track Severe Weather on mobile